nws-alerts: Checking more than four warning/county codes can delay the loading of your pages. You should use a cron job to get the data.

Nearby METAR Weather Reports

 

KETB - West Bend, WI
Distance from station: E 4mi, 6km
Updated: 03/31/2020 10:55am
Rain, Overcast
Rain, Overcast
 Wind from NNE
Wind: NNE 7 mph , 11 km/h
Temperature: 32°F , 0°C
Wind Chill: 25°F , -4°C
Dew Point: 32°F , 0°C
Humidity: 100%
Barometer: 30.09 inHg , 1019 hPa
Summary: Rain
Clouds: Overcast
Visibility: 4 miles , 6 km
Cloud details: Overcast 500 ft
2020/03/31 15:55 KETB 311555Z AUTO 02006KT 4SM RA OVC005 00/00 A3009 RMK AO2
KFLD - Fond Du Lac, WI
Distance from station: W 34mi, 54km
Updated: 03/31/2020 11:01am
Overcast
Overcast
 Wind from NNE
Wind: NNE 13 mph , 20 km/h
Temperature: 36°F , 2°C
Wind Chill: 27°F , -3°C
Dew Point: 32°F , 0°C
Humidity: 87%
Barometer: 30.11 inHg , 1019.6 hPa
Clouds: Overcast
Visibility: 7 miles , 11 km
Cloud details: Few Clouds 800 ft
Overcast 1300 ft
2020/03/31 16:01 KFLD 311601Z AUTO 02011KT 7SM FEW008 OVC013 02/00 A3011 RMK AO2 T00170000
 
KSBM - Sheboygan, WI
Distance from station: NE 36mi, 57km
Updated: 03/31/2020 10:53am
Overcast
Overcast
 Wind from NE
Wind: NE 9 mph , 15 km/h
Temperature: 37°F , 3°C
Wind Chill: 30°F , -1°C
Dew Point: 32°F , 0°C
Humidity: 81%
Barometer: 30.10 inHg , 1019.3 hPa
Clouds: Overcast
Visibility: 7 miles , 11 km
Cloud details: Overcast 800 ft
2020/03/31 15:53 KSBM 311553Z AUTO 04008KT 7SM OVC008 03/00 A3010 RMK AO2 SLP201 T00330000
KMKE - Milwaukee, WI
Distance from station: S 44mi, 70km
Updated: 03/31/2020 10:52am
Overcast
Overcast
 Wind from N
Wind: N 12 mph , 19 km/h
Temperature: 37°F , 3°C
Wind Chill: 29°F , -2°C
Dew Point: 34°F , 1°C
Humidity: 87%
Barometer: 30.07 inHg , 1018.3 hPa
Clouds: Overcast
Visibility: 10 miles , 16 km
Cloud details: Mostly cloudy 800 ft
Overcast 1700 ft
2020/03/31 15:52 KMKE 311552Z 01010KT 10SM BKN008 OVC017 03/01 A3007 RMK AO2 SLP191 T00330011
 
KOSH - Oshkosh, WI
Distance from station: WNW 52mi, 83km
Updated: 03/31/2020 10:53am
Overcast
Overcast
 Wind from NE
Wind: NE 13 mph , 20 km/h
Temperature: 34°F , 1°C
Wind Chill: 25°F , -4°C
Dew Point: 30°F , -1°C
Humidity: 87%
Barometer: 30.11 inHg , 1019.6 hPa
Clouds: Overcast
Visibility: 10 miles , 16 km
Cloud details: Overcast 1000 ft
2020/03/31 15:53 KOSH 311553Z 04011KT 10SM OVC010 01/M01 A3011 RMK AO2 CIG 008V013 SLP209 T00111006
KENW - Kenosha, WI
Distance from station: SSE 69mi, 111km
Updated: 03/31/2020 10:53am
Overcast
Overcast
 Wind from NNE
Wind: NNE 9 mph , 15 km/h
Temperature: 39°F , 4°C
Wind Chill: 33°F , 1°C
Dew Point: 34°F , 1°C
Humidity: 81%
Barometer: 30.06 inHg , 1017.9 hPa
Clouds: Overcast
Visibility: 10 miles , 16 km
Cloud details: Overcast 1600 ft
2020/03/31 15:53 KENW 311553Z 03008KT 10SM OVC016 04/01 A3006 RMK AO2 SLP186 T00440006
 
KMSN - Madison, WI
Distance from station: SW 69mi, 111km
Updated: 03/31/2020 10:53am
Overcast
Overcast
 Wind from NNE
Wind: NNE 14 mph , 22 km/h
Temperature: 36°F , 2°C
Wind Chill: 27°F , -3°C
Dew Point: 30°F , -1°C
Humidity: 81%
Barometer: 30.10 inHg , 1019.3 hPa
Clouds: Overcast
Visibility: 10 miles , 16 km
Cloud details: Overcast 1300 ft
2020/03/31 15:53 KMSN 311553Z 03012KT 10SM OVC013 02/M01 A3010 RMK AO2 SLP199 T00221011
KSAW - Marquette, MI
Distance from station: N 262mi, 421km
Updated: 03/31/2020 10:46am
Overcast
Overcast
 Wind from NNE
Wind: NNE 13 mph , 20 km/h
Temperature: 32°F , 0°C
Wind Chill: 22°F , -6°C
Dew Point: 28°F , -2°C
Humidity: 87%
Barometer: 30.13 inHg , 1020.3 hPa
Clouds: Overcast
Visibility: 10 miles , 16 km
Cloud details: Overcast 800 ft
2020/03/31 15:46 KSAW 311546Z 02011KT 10SM OVC008 00/M02 A3013
 
KIMT - Iron Mountain, MI
Distance from station: NNW 201mi, 323km
Updated: 03/31/2020 10:54am
Overcast
Overcast
 Wind from N
Wind: N 9 mph , 15 km/h
Temperature: 37°F , 3°C
Wind Chill: 30°F , -1°C
Dew Point: 27°F , -3°C
Humidity: 65%
Barometer: 30.12 inHg , 1020 hPa
Clouds: Overcast
Visibility: 10 miles , 16 km
Cloud details: Mostly cloudy 2000 ft
Overcast 3500 ft
2020/03/31 15:54 KIMT 311554Z AUTO 36008KT 10SM BKN020 OVC035 03/M03 A3012 RMK AO2 SLP212 T00331028
KGRB - Green Bay, WI
Distance from station: NNW 87mi, 140km
Updated: 03/31/2020 10:53am
Overcast
Overcast
 Wind from NNE
Wind: NNE 15 mph , 24 km/h, Gust: 23 mph , 37 km/h
Temperature: 36°F , 2°C
Wind Chill: 27°F , -3°C
Dew Point: 30°F , -1°C
Humidity: 81%
Barometer: 30.13 inHg , 1020.3 hPa
Clouds: Overcast
Visibility: 9 miles , 14 km
Cloud details: Mostly cloudy 1100 ft
Overcast 1700 ft
2020/03/31 15:53 KGRB 311553Z 03013G20KT 9SM BKN011 OVC017 02/M01 A3013 RMK AO2 RAB1459E04 SLP211 P0000 T00171011
 
KAUW - Wausau, WI
Distance from station: NW 155mi, 249km
Updated: 03/31/2020 9:54am
NOT Current
Overcast
Overcast
 Wind from N
Wind: N 6 mph , 9 km/h
Temperature: 34°F , 1°C
Wind Chill: 29°F , -2°C
Dew Point: 27°F , -3°C
Humidity: 75%
Barometer: 30.11 inHg , 1019.6 hPa
Clouds: Overcast
Visibility: 10 miles , 16 km
Cloud details: Overcast 1700 ft
2020/03/31 14:54 KAUW 311454Z AUTO 01005KT 10SM OVC017 01/M03 A3011 RMK AO2 SLP212 T00111028 58007
KORD - Chicago O'Hare, IL
Distance from station: S 113mi, 181km
Updated: 03/31/2020 10:51am
Overcast
Overcast
 Wind from N
Wind: N 15 mph , 24 km/h
Temperature: 39°F , 4°C
Wind Chill: 31°F , -1°C
Dew Point: 36°F , 2°C
Humidity: 87%
Barometer: 30.05 inHg , 1017.6 hPa
Clouds: Overcast
Visibility: 10 miles , 16 km
Cloud details: Partly cloudy 1200 ft
Mostly cloudy 1700 ft
Overcast 2800 ft
2020/03/31 15:51 KORD 311551Z 01013KT 10SM SCT012 BKN017 OVC028 04/02 A3005 RMK AO2 RAE12 SLP179 P0000 T00390017 $
 
KVOK - WIANG Volk Field, Camp Douglas, WI
Distance from station: WNW 120mi, 193km
Updated: 03/31/2020 10:56am
Overcast
Overcast
 Wind from ENE
Wind: ENE 8 mph , 13 km/h
Temperature: 37°F , 3°C
Wind Chill: 31°F , -1°C
Dew Point: 30°F , -1°C
Humidity: 75%
Barometer: 30.12 inHg , 1020 hPa
Clouds: Overcast
Visibility: 10 miles , 16 km
Cloud details: Overcast 2200 ft
2020/03/31 15:56 KVOK 311556Z 06007KT 10SM OVC022 03/M01 A3012 RMK AO2A SLP211
KLNR - Lone Rock, WI
Distance from station: W 114mi, 183km
Updated: 03/31/2020 10:56am
Overcast
Overcast
 Wind from NNE
Wind: NNE 10 mph , 17 km/h
Temperature: 37°F , 3°C
Wind Chill: 30°F , -1°C
Dew Point: 28°F , -2°C
Humidity: 70%
Barometer: 30.12 inHg , 1020 hPa
Clouds: Overcast
Visibility: 10 miles , 16 km
Cloud details: Overcast 2200 ft
2020/03/31 15:56 KLNR 311556Z AUTO 02009KT 10SM OVC022 03/M02 A3012 RMK AO2 SLP198 T00281017